Time;durP1;ratioP1;P1;durP2;ratioP2;P2;SDS_P1;SDS_P2;PMS_P1;PMS_P2;Temp;Humidity;BMP_temperature;BMP_pressure;BME280_temperature;BME280_humidity;BME280_pressure;Samples;Min_cycle;Max_cycle;Signal;HPM_P1;HPM_P2
2021/12/09 00:04:30;;;;;;;4.60;2.08;;;;;;;;;;10404522;28;20042;-79
2021/12/09 00:09:31;;;;;;;6.05;1.90;;;;;;;;;;10395467;28;20468;-80
2021/12/09 00:14:33;;;;;;;6.85;2.33;;;;;;;;;;10415167;28;20049;-80
2021/12/09 00:19:34;;;;;;;3.55;1.63;;;;;;;;;;10381796;28;20040;-79
2021/12/09 00:24:34;;;;;;;3.05;1.75;;;;;;;;;;10391500;28;20044;-81
2021/12/09 00:29:35;;;;;;;2.73;1.53;;;;;;;;;;10448941;23;20074;-82
2021/12/09 00:34:37;;;;;;;3.63;1.70;;;;;;;;;;10377869;28;20478;-83
2021/12/09 00:39:40;;;;;;;4.55;1.83;;;;;;;;;;10383030;28;20018;-82
2021/12/09 00:44:40;;;;;;;3.65;1.63;;;;;;;;;;10375318;28;20061;-82
2021/12/09 00:49:40;;;;;;;2.95;1.55;;;;;;;;;;10369888;28;20026;-83
2021/12/09 00:54:42;;;;;;;5.13;1.33;;;;;;;;;;10390391;28;20030;-84
2021/12/09 00:59:43;;;;;;;6.82;1.52;;;;;;;;;;10398289;28;20025;-83
2021/12/09 01:04:45;;;;;;;4.30;1.63;;;;;;;;;;10393675;28;20110;-83
2021/12/09 01:09:46;;;;;;;4.20;1.58;;;;;;;;;;10380955;28;20425;-83
2021/12/09 01:14:46;;;;;;;2.75;1.67;;;;;;;;;;10370912;28;20029;-84
2021/12/09 01:19:46;;;;;;;2.95;1.70;;;;;;;;;;10366323;28;20027;-85
2021/12/09 01:24:47;;;;;;;4.97;1.70;;;;;;;;;;10366724;28;20464;-85
2021/12/09 01:29:53;;;;;;;1.60;1.37;;;;;;;;;;10374538;28;20479;-85
2021/12/09 01:34:53;;;;;;;3.40;1.73;;;;;;;;;;10388154;28;20462;-85
2021/12/09 01:39:54;;;;;;;2.50;1.50;;;;;;;;;;10392936;28;20033;-85
2021/12/09 01:44:55;;;;;;;3.20;1.60;;;;;;;;;;10387191;28;20464;-85
2021/12/09 01:49:55;;;;;;;4.32;1.52;;;;;;;;;;10394995;28;20053;-84
2021/12/09 01:54:56;;;;;;;2.58;1.50;;;;;;;;;;10373973;28;20022;-84
2021/12/09 01:59:56;;;;;;;3.40;1.50;;;;;;;;;;10378778;28;20029;-82
2021/12/09 02:04:57;;;;;;;6.68;1.42;;;;;;;;;;10375262;28;20545;-83
2021/12/09 02:09:57;;;;;;;3.17;1.52;;;;;;;;;;10372889;28;20025;-83
2021/12/09 02:15:00;;;;;;;4.25;1.42;;;;;;;;;;10387739;28;20041;-87
2021/12/09 02:20:02;;;;;;;9.32;1.55;;;;;;;;;;10387156;28;20037;-87
2021/12/09 02:25:03;;;;;;;3.17;1.48;;;;;;;;;;10366737;28;20049;-86
2021/12/09 02:30:04;;;;;;;2.40;1.50;;;;;;;;;;10385682;28;20072;-86
2021/12/09 02:35:05;;;;;;;1.42;1.20;;;;;;;;;;10387004;28;20034;-86
2021/12/09 02:40:07;;;;;;;2.40;1.40;;;;;;;;;;10395411;28;20045;-85
2021/12/09 02:45:08;;;;;;;2.15;1.30;;;;;;;;;;10388346;28;20439;-85
2021/12/09 02:50:09;;;;;;;1.63;1.38;;;;;;;;;;10372864;28;20026;-84
2021/12/09 02:55:09;;;;;;;2.88;1.40;;;;;;;;;;10393639;28;20058;-85
2021/12/09 03:00:11;;;;;;;4.82;1.38;;;;;;;;;;10380751;28;20078;-85
2021/12/09 03:05:11;;;;;;;1.30;1.10;;;;;;;;;;10392396;28;20048;-85
2021/12/09 03:10:20;;;;;;;1.95;1.30;;;;;;;;;;10392498;28;20053;-84
2021/12/09 03:15:21;;;;;;;2.85;1.10;;;;;;;;;;10384580;28;20037;-84
2021/12/09 03:20:22;;;;;;;1.60;1.17;;;;;;;;;;10379161;28;20120;-85
2021/12/09 03:25:22;;;;;;;3.70;1.52;;;;;;;;;;10392861;28;20356;-86
2021/12/09 03:30:24;;;;;;;3.00;1.52;;;;;;;;;;10381785;28;20050;-86
2021/12/09 03:35:24;;;;;;;2.78;1.50;;;;;;;;;;10358979;28;20053;-88
2021/12/09 03:40:25;;;;;;;1.70;1.30;;;;;;;;;;10380440;28;20037;-88
2021/12/09 03:45:25;;;;;;;2.53;1.40;;;;;;;;;;10373345;28;20037;-86
2021/12/09 03:50:26;;;;;;;1.33;1.20;;;;;;;;;;10391522;28;20031;-85
2021/12/09 03:55:27;;;;;;;1.60;1.17;;;;;;;;;;10391398;28;20463;-87
2021/12/09 04:00:30;;;;;;;3.22;1.60;;;;;;;;;;10392430;28;20030;-87
2021/12/09 04:05:30;;;;;;;1.88;1.05;;;;;;;;;;10391291;28;20042;-86
2021/12/09 04:10:31;;;;;;;2.53;1.13;;;;;;;;;;10391598;28;20111;-86
2021/12/09 04:15:32;;;;;;;1.52;1.15;;;;;;;;;;10391522;28;20093;-87
2021/12/09 04:20:32;;;;;;;1.30;1.20;;;;;;;;;;10391206;28;20077;-87
2021/12/09 04:25:34;;;;;;;1.13;1.02;;;;;;;;;;10390967;28;20121;-87
2021/12/09 04:30:35;;;;;;;1.33;1.10;;;;;;;;;;10391696;28;20054;-88
2021/12/09 04:35:35;;;;;;;2.07;1.30;;;;;;;;;;10390246;28;20097;-88
2021/12/09 04:40:36;;;;;;;2.28;1.35;;;;;;;;;;10390984;28;21031;-87
2021/12/09 04:45:38;;;;;;;2.13;1.00;;;;;;;;;;10390546;28;20392;-87
2021/12/09 04:50:39;;;;;;;1.38;1.20;;;;;;;;;;10390454;28;20030;-87
2021/12/09 04:55:40;;;;;;;3.08;1.40;;;;;;;;;;10390088;28;20030;-87
2021/12/09 05:00:40;;;;;;;1.10;1.00;;;;;;;;;;10388494;28;20513;-87
2021/12/09 05:05:44;;;;;;;1.10;1.10;;;;;;;;;;10389310;28;20456;-86
2021/12/09 05:15:55;;;;;;;1.40;1.20;;;;;;;;;;10389686;28;20041;-85
2021/12/09 05:20:55;;;;;;;1.50;1.40;;;;;;;;;;10388974;28;20034;-84
2021/12/09 05:25:55;;;;;;;1.70;1.05;;;;;;;;;;10388759;28;20045;-86
2021/12/09 05:36:17;;;;;;;2.35;1.45;;;;;;;;;;10388055;28;20456;-89
2021/12/09 05:41:17;;;;;;;1.38;1.20;;;;;;;;;;10388554;28;20030;-88
2021/12/09 05:46:18;;;;;;;2.30;1.15;;;;;;;;;;10387805;28;20423;-88
2021/12/09 05:51:20;;;;;;;5.10;1.17;;;;;;;;;;10403724;28;20156;-88
2021/12/09 05:56:21;;;;;;;2.65;1.30;;;;;;;;;;10401634;28;20053;-88
2021/12/09 06:01:22;;;;;;;1.98;1.50;;;;;;;;;;10387863;28;20031;-88
2021/12/09 06:06:22;;;;;;;1.27;1.00;;;;;;;;;;10387371;28;20101;-84
2021/12/09 06:11:23;;;;;;;1.85;1.27;;;;;;;;;;10386397;28;20021;-86
2021/12/09 06:16:24;;;;;;;1.80;1.40;;;;;;;;;;10387719;28;20038;-86
2021/12/09 06:21:27;;;;;;;1.73;1.35;;;;;;;;;;10386978;28;20030;-86
2021/12/09 06:26:29;;;;;;;2.17;1.38;;;;;;;;;;10387063;28;20038;-87
2021/12/09 06:31:29;;;;;;;1.20;1.10;;;;;;;;;;10387747;28;20129;-89
2021/12/09 06:36:30;;;;;;;1.77;1.20;;;;;;;;;;10386325;28;20480;-90
2021/12/09 06:41:30;;;;;;;1.37;1.27;;;;;;;;;;10387818;28;20357;-92
2021/12/09 06:46:31;;;;;;;1.50;1.40;;;;;;;;;;10388277;28;20462;-95
2021/12/09 06:51:31;;;;;;;1.35;1.25;;;;;;;;;;10388431;28;20436;-92
2021/12/09 06:56:32;;;;;;;3.85;1.80;;;;;;;;;;10388056;28;20038;-93
2021/12/09 07:01:35;;;;;;;7.60;2.50;;;;;;;;;;10384973;28;20058;-92
2021/12/09 07:06:37;;;;;;;4.20;2.50;;;;;;;;;;10371727;28;20367;-95
2021/12/09 07:11:38;;;;;;;4.70;2.70;;;;;;;;;;10391800;28;20022;-91
2021/12/09 07:16:39;;;;;;;4.63;2.90;;;;;;;;;;10385172;28;20042;-88
2021/12/09 07:21:40;;;;;;;2.65;2.20;;;;;;;;;;10387546;28;20120;-82
2021/12/09 07:26:41;;;;;;;5.45;2.50;;;;;;;;;;10391747;28;20192;-82
2021/12/09 07:31:41;;;;;;;11.57;2.60;;;;;;;;;;10361402;28;20042;-82
2021/12/09 07:36:42;;;;;;;15.30;2.83;;;;;;;;;;10388286;28;20048;-81
2021/12/09 07:41:42;;;;;;;7.30;2.80;;;;;;;;;;10391809;28;20448;-81
2021/12/09 07:46:45;;;;;;;4.50;2.85;;;;;;;;;;10392268;28;20084;-81
2021/12/09 07:51:46;;;;;;;14.15;3.13;;;;;;;;;;10392360;28;20400;-81
2021/12/09 07:56:47;;;;;;;3.78;2.28;;;;;;;;;;10393000;28;20041;-81
2021/12/09 08:01:47;;;;;;;8.05;2.95;;;;;;;;;;10392467;28;20028;-80
2021/12/09 08:06:48;;;;;;;5.97;2.78;;;;;;;;;;10391581;28;20026;-80
2021/12/09 08:11:48;;;;;;;4.60;2.67;;;;;;;;;;10391810;28;20040;-80
2021/12/09 08:17:07;;;;;;;7.40;2.80;;;;;;;;;;10391611;28;20097;-80
2021/12/09 08:22:08;;;;;;;5.03;3.28;;;;;;;;;;10351395;28;20118;-81
2021/12/09 08:27:08;;;;;;;4.47;2.78;;;;;;;;;;10353171;28;20073;-80
2021/12/09 08:32:09;;;;;;;6.00;2.80;;;;;;;;;;10391579;28;20058;-80
2021/12/09 08:37:09;;;;;;;4.60;3.10;;;;;;;;;;10390643;28;20475;-80
2021/12/09 08:42:10;;;;;;;3.95;2.78;;;;;;;;;;10390485;28;20045;-80
2021/12/09 08:47:10;;;;;;;3.30;2.83;;;;;;;;;;10390339;28;20104;-80
2021/12/09 08:52:12;;;;;;;4.20;2.67;;;;;;;;;;10390407;28;20084;-80
2021/12/09 08:57:12;;;;;;;4.38;2.65;;;;;;;;;;10389349;28;20499;-80
2021/12/09 09:02:14;;;;;;;3.38;2.60;;;;;;;;;;10389381;28;20029;-80
2021/12/09 09:07:15;;;;;;;4.15;2.65;;;;;;;;;;10384582;28;20353;-85
2021/12/09 09:12:17;;;;;;;3.45;2.67;;;;;;;;;;10389585;28;20373;-84
2021/12/09 09:17:17;;;;;;;5.38;2.65;;;;;;;;;;10389088;28;20127;-86
2021/12/09 09:22:18;;;;;;;4.72;2.78;;;;;;;;;;10386170;28;20432;-85
2021/12/09 09:27:18;;;;;;;4.03;2.80;;;;;;;;;;10379841;28;20042;-85
2021/12/09 09:32:19;;;;;;;6.50;3.13;;;;;;;;;;10348837;28;20047;-85
2021/12/09 09:37:20;;;;;;;3.72;2.83;;;;;;;;;;10361567;28;20042;-86
2021/12/09 09:47:39;;;;;;;3.03;2.70;;;;;;;;;;10346614;28;20050;-86
2021/12/09 09:52:40;;;;;;;4.88;2.88;;;;;;;;;;10366281;28;20042;-89
2021/12/09 09:57:41;;;;;;;4.55;2.55;;;;;;;;;;10387842;28;20050;-87
2021/12/09 10:02:42;;;;;;;3.72;2.40;;;;;;;;;;10387856;28;20034;-87
2021/12/09 10:07:43;;;;;;;3.60;2.95;;;;;;;;;;10387691;28;20049;-87
2021/12/09 10:12:55;;;;;;;6.18;3.35;;;;;;;;;;10386776;28;20026;-86
2021/12/09 10:17:55;;;;;;;5.28;2.50;;;;;;;;;;10363903;28;20436;-86
2021/12/09 10:22:55;;;;;;;4.03;3.03;;;;;;;;;;10346939;28;20038;-85
2021/12/09 10:28:00;;;;;;;3.13;2.80;;;;;;;;;;10346337;28;20523;-86
2021/12/09 10:33:02;;;;;;;5.10;3.08;;;;;;;;;;10363380;28;20054;-86
2021/12/09 10:38:04;;;;;;;3.65;2.40;;;;;;;;;;10381641;28;20423;-85
2021/12/09 10:43:04;;;;;;;7.28;3.10;;;;;;;;;;10384982;28;20037;-83
2021/12/09 10:58:26;;;;;;;5.22;3.00;;;;;;;;;;10393639;28;20037;-84
2021/12/09 11:03:33;;;;;;;4.65;3.28;;;;;;;;;;10407565;28;20104;-83
2021/12/09 11:08:41;;;;;;;8.48;3.13;;;;;;;;;;10407282;28;20026;-83
2021/12/09 11:13:54;;;;;;;4.70;2.92;;;;;;;;;;10402991;28;20033;-83
2021/12/09 11:19:19;;;;;;;4.78;2.83;;;;;;;;;;10388661;28;20365;-83
2021/12/09 11:24:22;;;;;;;4.68;2.70;;;;;;;;;;10393831;28;20053;-80
2021/12/09 11:29:26;;;;;;;5.05;3.15;;;;;;;;;;10392810;28;20050;-83
2021/12/09 11:34:43;;;;;;;4.30;3.10;;;;;;;;;;10392760;28;20388;-83
2021/12/09 11:39:47;;;;;;;3.88;2.95;;;;;;;;;;10393275;28;20049;-81
2021/12/09 11:44:48;;;;;;;5.22;3.42;;;;;;;;;;10391810;28;20069;-82
2021/12/09 11:49:51;;;;;;;5.85;3.00;;;;;;;;;;10392784;28;20444;-82
2021/12/09 11:55:02;;;;;;;4.82;2.78;;;;;;;;;;10392143;28;20030;-84
2021/12/09 12:11:26;;;;;;;3.47;2.72;;;;;;;;;;10376858;28;20435;-82
2021/12/09 12:17:20;;;;;;;5.72;3.17;;;;;;;;;;10391489;28;20042;-83
2021/12/09 12:22:09;;;;;;;3.40;2.20;;;;;;;;;;10387665;28;20535;-84
2021/12/09 12:43:15;;;;;;;3.60;2.65;;;;;;;;;;10417533;28;20037;-78
2021/12/09 12:53:43;;;;;;;10.18;2.78;;;;;;;;;;10412764;28;20400;-78
2021/12/09 12:59:05;;;;;;;3.45;2.63;;;;;;;;;;10414277;28;20452;-79
2021/12/09 13:10:25;;;;;;;5.88;2.90;;;;;;;;;;10415727;28;20116;-79
2021/12/09 13:15:32;;;;;;;6.25;3.08;;;;;;;;;;10417202;28;20040;-79
2021/12/09 13:20:36;;;;;;;7.07;2.85;;;;;;;;;;10415484;28;20025;-79
2021/12/09 13:25:36;;;;;;;6.25;2.72;;;;;;;;;;10396611;28;20038;-79
2021/12/09 13:51:51;;;;;;;4.60;3.38;;;;;;;;;;10414515;28;20069;-80
2021/12/09 13:56:45;;;;;;;7.05;2.95;;;;;;;;;;10410897;28;20051;-80
2021/12/09 14:01:47;;;;;;;11.57;3.20;;;;;;;;;;10413438;28;20365;-80
2021/12/09 14:07:08;;;;;;;5.00;2.65;;;;;;;;;;10412045;28;20037;-82
2021/12/09 14:12:09;;;;;;;11.95;4.40;;;;;;;;;;10410615;28;20120;-81
2021/12/09 14:17:13;;;;;;;3.75;2.90;;;;;;;;;;10412879;28;20468;-81
2021/12/09 14:22:14;;;;;;;10.95;3.55;;;;;;;;;;10414266;28;20460;-80
2021/12/09 14:27:16;;;;;;;12.38;2.83;;;;;;;;;;10414547;28;20071;-79
2021/12/09 14:32:19;;;;;;;10.23;3.00;;;;;;;;;;10417813;28;20045;-82
2021/12/09 14:37:20;;;;;;;13.80;3.47;;;;;;;;;;10421925;28;20055;-83
2021/12/09 14:42:20;;;;;;;20.45;3.40;;;;;;;;;;10423178;28;20037;-82
2021/12/09 14:47:21;;;;;;;105.93;11.80;;;;;;;;;;10422682;28;20481;-82
2021/12/09 14:52:31;;;;;;;21.98;9.75;;;;;;;;;;10421111;28;20124;-82
2021/12/09 14:57:32;;;;;;;14.52;5.55;;;;;;;;;;10421599;28;20065;-82
2021/12/09 15:02:42;;;;;;;20.63;5.05;;;;;;;;;;10422502;28;20042;-88
2021/12/09 15:07:51;;;;;;;17.38;4.72;;;;;;;;;;10416412;28;20379;-89
2021/12/09 15:12:51;;;;;;;8.68;4.35;;;;;;;;;;10417808;28;20064;-88
2021/12/09 15:17:59;;;;;;;10.57;4.18;;;;;;;;;;10418900;28;20069;-90
2021/12/09 15:23:08;;;;;;;10.00;4.38;;;;;;;;;;10420235;28;20082;-89
2021/12/09 15:28:11;;;;;;;8.93;4.15;;;;;;;;;;10420591;28;20360;-88
2021/12/09 15:33:43;;;;;;;5.38;3.40;;;;;;;;;;10419950;28;20046;-88
2021/12/09 15:38:59;;;;;;;14.80;3.85;;;;;;;;;;10410745;28;20060;-87
2021/12/09 15:44:03;;;;;;;13.98;3.78;;;;;;;;;;10417208;28;20061;-86
2021/12/09 15:49:10;;;;;;;8.55;4.13;;;;;;;;;;10418923;28;20037;-87
2021/12/09 15:54:12;;;;;;;7.63;3.72;;;;;;;;;;10420275;28;20390;-87
2021/12/09 15:59:16;;;;;;;12.40;4.43;;;;;;;;;;10413964;28;20179;-88
2021/12/09 16:04:17;;;;;;;9.07;3.67;;;;;;;;;;10397926;28;20034;-87
2021/12/09 16:09:19;;;;;;;7.18;3.95;;;;;;;;;;10420061;28;20030;-87
2021/12/09 16:14:23;;;;;;;7.93;3.97;;;;;;;;;;10420998;28;20033;-86
2021/12/09 16:19:33;;;;;;;9.57;3.65;;;;;;;;;;10418292;28;20032;-86
2021/12/09 16:24:33;;;;;;;6.63;3.88;;;;;;;;;;10419060;28;20124;-86
2021/12/09 16:29:34;;;;;;;7.53;3.83;;;;;;;;;;10415096;28;20101;-87
2021/12/09 16:34:35;;;;;;;7.38;4.03;;;;;;;;;;10418815;28;20482;-86
2021/12/09 16:39:35;;;;;;;7.82;4.40;;;;;;;;;;10418534;28;20429;-86
2021/12/09 16:44:36;;;;;;;9.82;4.00;;;;;;;;;;10419117;28;20087;-86
2021/12/09 16:49:37;;;;;;;6.90;3.30;;;;;;;;;;10417159;28;20026;-85
2021/12/09 16:54:43;;;;;;;9.23;3.85;;;;;;;;;;10416216;28;20382;-85
2021/12/09 16:59:44;;;;;;;9.77;3.58;;;;;;;;;;10412623;28;20067;-80
2021/12/09 17:04:46;;;;;;;7.57;3.73;;;;;;;;;;10414560;28;20086;-80
2021/12/09 17:09:48;;;;;;;5.93;3.80;;;;;;;;;;10414355;28;20448;-80
2021/12/09 17:14:48;;;;;;;7.22;3.90;;;;;;;;;;10414860;28;20030;-81
2021/12/09 17:19:51;;;;;;;9.43;3.57;;;;;;;;;;10414593;28;20113;-81
2021/12/09 17:24:57;;;;;;;11.23;4.30;;;;;;;;;;10414691;28;20451;-81
2021/12/09 17:30:06;;;;;;;9.18;4.32;;;;;;;;;;10412262;28;20049;-80
2021/12/09 17:35:08;;;;;;;8.13;4.28;;;;;;;;;;10410592;28;20494;-81
2021/12/09 17:40:10;;;;;;;6.47;3.75;;;;;;;;;;10411049;28;20116;-83
2021/12/09 17:45:14;;;;;;;11.00;4.38;;;;;;;;;;10414967;28;20750;-83
2021/12/09 17:50:16;;;;;;;5.72;3.85;;;;;;;;;;10414693;28;20128;-84
2021/12/09 17:55:17;;;;;;;7.57;4.57;;;;;;;;;;10412274;28;20040;-82
2021/12/09 18:00:24;;;;;;;6.90;4.53;;;;;;;;;;10411311;28;20559;-85
2021/12/09 18:05:27;;;;;;;8.75;4.57;;;;;;;;;;10410128;28;20037;-84
2021/12/09 18:10:30;;;;;;;6.78;3.70;;;;;;;;;;10409873;28;20032;-84
2021/12/09 18:15:36;;;;;;;12.45;4.25;;;;;;;;;;10424730;28;20530;-84
2021/12/09 18:20:38;;;;;;;6.88;4.43;;;;;;;;;;10411307;28;20129;-85
2021/12/09 18:25:39;;;;;;;9.90;3.70;;;;;;;;;;10410782;28;20112;-84
2021/12/09 18:30:40;;;;;;;5.10;3.88;;;;;;;;;;10413090;28;20136;-85
2021/12/09 18:35:42;;;;;;;8.05;4.03;;;;;;;;;;10413700;28;20069;-85
2021/12/09 18:40:45;;;;;;;6.57;4.13;;;;;;;;;;10408661;28;20030;-84
2021/12/09 18:45:46;;;;;;;10.15;4.15;;;;;;;;;;10401816;28;20036;-84
2021/12/09 18:50:49;;;;;;;5.50;3.80;;;;;;;;;;10410774;28;20029;-83
2021/12/09 18:55:52;;;;;;;4.68;3.45;;;;;;;;;;10412414;28;20037;-81
2021/12/09 19:00:55;;;;;;;5.97;3.80;;;;;;;;;;10403657;28;20045;-85
2021/12/09 19:05:55;;;;;;;7.80;3.70;;;;;;;;;;10406724;28;20434;-83
2021/12/09 19:10:56;;;;;;;7.15;4.45;;;;;;;;;;10408214;28;20034;-82
2021/12/09 19:15:59;;;;;;;8.73;4.50;;;;;;;;;;10411370;28;20040;-82
2021/12/09 19:21:11;;;;;;;5.95;4.05;;;;;;;;;;10416991;28;20041;-82
2021/12/09 19:26:12;;;;;;;6.22;3.85;;;;;;;;;;10416087;28;20029;-83
2021/12/09 19:31:14;;;;;;;9.10;4.57;;;;;;;;;;10418512;28;20056;-83
2021/12/09 19:36:15;;;;;;;10.10;4.55;;;;;;;;;;10420691;28;20506;-82
2021/12/09 19:41:16;;;;;;;6.93;3.90;;;;;;;;;;10420015;28;20033;-83
2021/12/09 19:46:16;;;;;;;6.00;4.22;;;;;;;;;;10418188;28;20042;-82
2021/12/09 19:51:17;;;;;;;8.32;4.18;;;;;;;;;;10408070;28;20406;-82
2021/12/09 19:56:18;;;;;;;5.80;4.45;;;;;;;;;;10405382;28;20171;-81
2021/12/09 20:01:19;;;;;;;7.20;3.85;;;;;;;;;;10418237;28;20108;-82
2021/12/09 20:06:19;;;;;;;5.28;3.90;;;;;;;;;;10414337;28;20391;-82
2021/12/09 20:11:22;;;;;;;5.38;3.70;;;;;;;;;;10418360;28;20045;-82
2021/12/09 20:16:24;;;;;;;10.52;4.03;;;;;;;;;;10419926;28;20088;-85
2021/12/09 20:21:25;;;;;;;7.05;4.13;;;;;;;;;;10415099;28;20025;-85
2021/12/09 20:26:27;;;;;;;5.25;3.72;;;;;;;;;;10418788;28;20034;-86
2021/12/09 20:31:28;;;;;;;4.80;3.35;;;;;;;;;;10417095;28;20128;-86
2021/12/09 20:36:28;;;;;;;7.10;3.90;;;;;;;;;;10419799;28;20111;-86
2021/12/09 20:41:29;;;;;;;6.05;3.85;;;;;;;;;;10416541;28;20034;-86
2021/12/09 20:46:30;;;;;;;14.40;3.45;;;;;;;;;;10418718;28;20031;-86
2021/12/09 20:51:32;;;;;;;4.97;3.55;;;;;;;;;;10417671;28;20046;-85
2021/12/09 20:56:32;;;;;;;6.10;4.25;;;;;;;;;;10417559;28;20052;-82
2021/12/09 21:01:36;;;;;;;5.47;4.03;;;;;;;;;;10416258;28;20036;-82
2021/12/09 21:06:37;;;;;;;5.78;4.15;;;;;;;;;;10418199;28;20490;-83
2021/12/09 21:11:38;;;;;;;5.75;4.25;;;;;;;;;;10417123;28;20028;-82
2021/12/09 21:16:39;;;;;;;5.78;4.10;;;;;;;;;;10417200;28;20033;-82
2021/12/09 21:21:40;;;;;;;6.20;4.00;;;;;;;;;;10414696;28;20025;-83
2021/12/09 21:26:40;;;;;;;11.68;4.65;;;;;;;;;;10416311;28;20030;-83
2021/12/09 21:31:40;;;;;;;5.72;4.20;;;;;;;;;;10415895;28;20053;-83
2021/12/09 21:36:48;;;;;;;10.48;4.65;;;;;;;;;;10416138;28;20387;-82
2021/12/09 21:41:50;;;;;;;11.88;4.40;;;;;;;;;;10415256;28;20032;-82
2021/12/09 21:46:51;;;;;;;7.70;4.10;;;;;;;;;;10415121;28;20037;-83
2021/12/09 21:51:52;;;;;;;7.57;4.22;;;;;;;;;;10415553;28;20025;-83
2021/12/09 21:56:53;;;;;;;7.55;4.00;;;;;;;;;;10415354;28;20107;-82
2021/12/09 22:01:54;;;;;;;5.72;4.10;;;;;;;;;;10415885;28;20489;-83
2021/12/09 22:06:55;;;;;;;6.55;4.32;;;;;;;;;;10414509;28;20033;-82
2021/12/09 22:11:56;;;;;;;7.20;4.40;;;;;;;;;;10412589;28;20037;-82
2021/12/09 22:16:58;;;;;;;6.68;4.30;;;;;;;;;;10414001;28;20026;-82
2021/12/09 22:21:59;;;;;;;6.43;4.43;;;;;;;;;;10406297;28;20037;-79
2021/12/09 22:27:00;;;;;;;6.82;4.82;;;;;;;;;;10400516;28;20116;-81
2021/12/09 22:32:01;;;;;;;6.85;3.90;;;;;;;;;;10415755;28;20551;-80
2021/12/09 22:37:01;;;;;;;6.85;4.55;;;;;;;;;;10414391;28;20117;-80
2021/12/09 22:42:02;;;;;;;7.55;4.53;;;;;;;;;;10414610;28;20067;-81
2021/12/09 22:47:03;;;;;;;5.88;4.38;;;;;;;;;;10413925;28;20025;-81
2021/12/09 22:52:05;;;;;;;6.75;4.30;;;;;;;;;;10417658;28;20458;-81
2021/12/09 22:57:06;;;;;;;5.50;4.40;;;;;;;;;;10421309;28;20043;-82
2021/12/09 23:02:06;;;;;;;6.85;4.70;;;;;;;;;;10420878;28;20186;-84
2021/12/09 23:07:07;;;;;;;10.95;4.35;;;;;;;;;;10420210;28;20038;-82
2021/12/09 23:12:08;;;;;;;9.73;4.20;;;;;;;;;;10422524;28;20471;-82
2021/12/09 23:17:14;;;;;;;9.23;4.25;;;;;;;;;;10422648;28;20038;-81
2021/12/09 23:22:14;;;;;;;6.40;4.38;;;;;;;;;;10418585;28;20095;-81
2021/12/09 23:27:15;;;;;;;6.00;3.60;;;;;;;;;;10417857;28;20026;-83
2021/12/09 23:32:15;;;;;;;10.18;3.85;;;;;;;;;;10418036;28;20873;-83
2021/12/09 23:37:16;;;;;;;6.88;3.88;;;;;;;;;;10417048;28;20033;-81
2021/12/09 23:42:16;;;;;;;5.65;3.65;;;;;;;;;;10419055;28;20434;-82
2021/12/09 23:47:16;;;;;;;8.63;3.80;;;;;;;;;;10417295;28;20025;-81
2021/12/09 23:52:17;;;;;;;7.27;4.27;;;;;;;;;;10428572;28;20482;-81
2021/12/09 23:57:17;;;;;;;5.78;3.75;;;;;;;;;;10417298;28;20467;-81
